createdAt,value
2023-02-08T00:01:09.012Z,102796.35
2023-02-08T00:03:37.607Z,102800.02
2023-02-08T00:06:06.725Z,102804.52
2023-02-08T00:08:35.826Z,102806.84
2023-02-08T00:11:06.078Z,102811.09
2023-02-08T00:13:34.769Z,102815.84
2023-02-08T00:16:03.394Z,102823.37
2023-02-08T00:18:31.996Z,102830.13
2023-02-08T00:21:00.784Z,102831.73
2023-02-08T00:23:29.617Z,102837.57
2023-02-08T00:25:58.177Z,102843.17
2023-02-08T00:28:26.829Z,102845.62
2023-02-08T00:30:55.599Z,102844.38
2023-02-08T00:33:24.387Z,102845.06
2023-02-08T00:35:57.813Z,102854.77
2023-02-08T00:38:26.427Z,102856.95
2023-02-08T00:40:54.976Z,102864.21
2023-02-08T00:43:23.658Z,102862.33
2023-02-08T00:45:54.337Z,102866.65
2023-02-08T00:48:24.269Z,102871.27
2023-02-08T00:50:59.582Z,102869.55
2023-02-08T00:53:28.667Z,102873.20
2023-02-08T00:55:57.259Z,102880.20
2023-02-08T00:58:26.079Z,102883.18
2023-02-08T01:00:54.891Z,102883.84
2023-02-08T01:03:23.555Z,102885.81
2023-02-08T01:05:52.134Z,102887.11
2023-02-08T01:08:21.512Z,102889.39
2023-02-08T01:10:50.346Z,102894.70
2023-02-08T01:13:19.288Z,102894.80
2023-02-08T01:15:48.029Z,102897.81
2023-02-08T01:18:16.723Z,102899.39
2023-02-08T01:20:45.528Z,102908.75
2023-02-08T01:23:14.400Z,102908.05
2023-02-08T01:25:43.324Z,102910.08
2023-02-08T01:28:12.122Z,102912.79
2023-02-08T01:30:40.898Z,102916.80
2023-02-08T01:33:09.871Z,102921.00
2023-02-08T01:35:38.682Z,102921.39
2023-02-08T01:38:07.557Z,102922.13
2023-02-08T01:40:36.195Z,102930.45
2023-02-08T01:43:06.159Z,102929.02
2023-02-08T01:45:34.969Z,102935.68
2023-02-08T01:48:04.852Z,102935.64
2023-02-08T01:50:36.883Z,102938.77
2023-02-08T01:53:05.393Z,102937.92
2023-02-08T01:55:34.521Z,102942.37
2023-02-08T01:58:03.801Z,102947.70
2023-02-08T02:00:32.575Z,102948.90
2023-02-08T02:03:01.274Z,102952.46
2023-02-08T02:05:32.318Z,102953.35
2023-02-08T02:08:00.905Z,102954.55
2023-02-08T02:10:31.612Z,102957.27
2023-02-08T02:13:02.583Z,102960.50
2023-02-08T02:15:31.452Z,102964.86
2023-02-08T02:18:00.164Z,102965.09
2023-02-08T02:20:33.291Z,102970.61
2023-02-08T02:23:12.809Z,102972.30
2023-02-08T02:25:52.442Z,102972.14
2023-02-08T02:28:31.465Z,102969.73
2023-02-08T02:31:12.740Z,102974.30
2023-02-08T02:33:46.696Z,102977.27
2023-02-08T02:36:17.402Z,102977.74
2023-02-08T02:38:51.022Z,102973.64
2023-02-08T02:41:41.355Z,102982.17
2023-02-08T02:44:13.205Z,102978.21
2023-02-08T02:46:43.216Z,102979.90
2023-02-08T02:49:13.040Z,102983.39
2023-02-08T02:51:43.359Z,102982.34
2023-02-08T02:54:13.579Z,102988.02
2023-02-08T02:56:42.871Z,102987.17
2023-02-08T02:59:12.289Z,102990.26
2023-02-08T03:01:41.564Z,102995.34
2023-02-08T03:04:14.283Z,102998.45
2023-02-08T03:06:46.427Z,102997.15
2023-02-08T03:09:22.181Z,103001.30
2023-02-08T03:11:51.992Z,103001.16
2023-02-08T03:14:30.840Z,103007.40
2023-02-08T03:17:02.660Z,103009.52
2023-02-08T03:19:33.570Z,103011.15
2023-02-08T03:22:02.690Z,103016.70
2023-02-08T03:24:33.160Z,103015.70
2023-02-08T03:27:03.606Z,103014.52
2023-02-08T03:29:40.263Z,103021.30
2023-02-08T03:32:09.911Z,103023.00
2023-02-08T03:34:41.698Z,103028.67
2023-02-08T03:37:11.259Z,103033.21
2023-02-08T03:39:39.984Z,103035.93
2023-02-08T03:42:15.636Z,103032.27
2023-02-08T03:44:45.911Z,103037.18
2023-02-08T03:47:15.625Z,103038.48
2023-02-08T03:49:44.294Z,103038.67
2023-02-08T03:52:12.768Z,103040.85
2023-02-08T03:54:41.912Z,103040.88
2023-02-08T03:57:12.713Z,103041.52
2023-02-08T03:59:42.379Z,103042.21
2023-02-08T04:02:11.967Z,103041.39
2023-02-08T04:04:41.627Z,103043.83
2023-02-08T04:07:10.422Z,103047.71
2023-02-08T04:09:39.184Z,103043.64
2023-02-08T04:12:08.434Z,103043.94
2023-02-08T04:14:37.107Z,103050.84
2023-02-08T04:17:05.835Z,103050.86
2023-02-08T04:19:34.474Z,103052.34
2023-02-08T04:22:03.149Z,103057.10
2023-02-08T04:24:31.535Z,103054.73
2023-02-08T04:27:00.132Z,103059.03
2023-02-08T04:29:28.908Z,103059.20
2023-02-08T04:31:57.816Z,103059.53
2023-02-08T04:34:26.887Z,103062.94
2023-02-08T04:36:55.603Z,103062.00
2023-02-08T04:39:24.131Z,103064.70
2023-02-08T04:41:52.748Z,103072.66
2023-02-08T04:44:21.491Z,103075.09
2023-02-08T04:46:50.136Z,103075.48
2023-02-08T04:49:18.887Z,103080.61
2023-02-08T04:51:47.445Z,103080.65
2023-02-08T04:54:16.252Z,103082.88
2023-02-08T04:56:45.323Z,103087.46
2023-02-08T04:59:14.245Z,103096.12
2023-02-08T05:01:45.254Z,103098.79
2023-02-08T05:04:14.086Z,103098.65
2023-02-08T05:06:43.026Z,103103.98
2023-02-08T05:09:12.246Z,103105.39
2023-02-08T05:11:41.943Z,103113.09
2023-02-08T05:14:10.413Z,103118.08
2023-02-08T05:16:39.008Z,103124.41
2023-02-08T05:19:07.728Z,103129.23
2023-02-08T05:21:36.549Z,103133.84
2023-02-08T05:24:06.620Z,103140.10
2023-02-08T05:26:35.258Z,103143.52
2023-02-08T05:29:03.830Z,103146.04
2023-02-08T05:31:32.662Z,103148.06
2023-02-08T05:34:01.655Z,103157.11
2023-02-08T05:36:30.628Z,103162.73
2023-02-08T05:38:59.612Z,103157.91
2023-02-08T05:41:28.217Z,103162.38
2023-02-08T05:43:56.969Z,103162.94
2023-02-08T05:46:25.946Z,103167.77
2023-02-08T05:48:54.768Z,103173.58
2023-02-08T05:51:23.409Z,103174.96
2023-02-08T05:53:51.928Z,103178.55
2023-02-08T05:56:20.723Z,103176.27
2023-02-08T05:58:49.567Z,103176.68
2023-02-08T06:01:18.345Z,103177.94
2023-02-08T06:03:46.991Z,103184.38
2023-02-08T06:06:15.497Z,103186.34
2023-02-08T06:08:44.327Z,103185.80
2023-02-08T06:11:15.387Z,103187.97
2023-02-08T06:13:44.149Z,103186.69
2023-02-08T06:16:12.722Z,103187.28
2023-02-08T06:18:41.325Z,103187.55
2023-02-08T06:21:12.411Z,103191.73
2023-02-08T06:23:41.860Z,103191.36
2023-02-08T06:26:10.924Z,103188.31
2023-02-08T06:28:39.969Z,103190.79
2023-02-08T06:31:08.459Z,103193.10
2023-02-08T06:33:37.377Z,103194.39
2023-02-08T06:36:06.996Z,103193.62
2023-02-08T06:38:35.729Z,103195.70
2023-02-08T06:41:04.368Z,103198.05
2023-02-08T06:43:33.216Z,103197.80
2023-02-08T06:46:04.300Z,103195.61
2023-02-08T06:48:33.970Z,103202.53
2023-02-08T06:51:02.797Z,103209.17
2023-02-08T06:53:31.777Z,103209.25
2023-02-08T06:56:00.430Z,103214.13
2023-02-08T06:58:29.027Z,103216.76
2023-02-08T07:00:58.023Z,103215.98
2023-02-08T07:03:27.087Z,103215.38
2023-02-08T07:06:04.646Z,103219.46
2023-02-08T07:08:33.774Z,103224.16
2023-02-08T07:11:07.078Z,103226.52
2023-02-08T07:13:36.015Z,103230.71
2023-02-08T07:16:04.995Z,103230.95
2023-02-08T07:18:33.881Z,103231.19
2023-02-08T07:21:02.488Z,103234.04
2023-02-08T07:23:32.159Z,103239.90
2023-02-08T07:26:01.490Z,103241.48
2023-02-08T07:28:30.359Z,103246.84
2023-02-08T07:30:59.216Z,103245.17
2023-02-08T07:33:27.953Z,103249.51
2023-02-08T07:35:56.634Z,103253.42
2023-02-08T07:38:25.518Z,103252.08
2023-02-08T07:40:59.696Z,103252.56
2023-02-08T07:43:28.187Z,103257.23
2023-02-08T07:45:56.609Z,103259.25
2023-02-08T07:48:25.308Z,103259.48
2023-02-08T07:50:54.139Z,103261.90
2023-02-08T07:53:22.916Z,103267.77
2023-02-08T07:55:51.676Z,103269.64
2023-02-08T07:58:20.193Z,103271.44
2023-02-08T08:00:49.026Z,103273.09
2023-02-08T08:03:17.791Z,103274.09
2023-02-08T08:05:46.525Z,103278.23
2023-02-08T08:08:15.173Z,103283.40
2023-02-08T08:10:44.441Z,103291.77
2023-02-08T08:13:13.229Z,103290.08
2023-02-08T08:15:42.095Z,103293.48
2023-02-08T08:18:11.006Z,103296.32
2023-02-08T08:20:39.818Z,103296.48
2023-02-08T08:23:08.788Z,103299.50
2023-02-08T08:25:37.575Z,103306.38
2023-02-08T08:28:06.257Z,103307.63
2023-02-08T08:30:35.254Z,103313.21
2023-02-08T08:33:03.983Z,103315.02
2023-02-08T08:35:32.833Z,103314.19
2023-02-08T08:38:01.570Z,103315.95
2023-02-08T08:40:30.349Z,103316.48
2023-02-08T08:42:58.978Z,103319.40
2023-02-08T08:45:27.605Z,103319.45
2023-02-08T08:47:56.042Z,103321.67
2023-02-08T08:50:24.661Z,103323.20
2023-02-08T08:52:53.538Z,103327.56
2023-02-08T08:55:22.253Z,103327.35
2023-02-08T08:57:53.218Z,103330.83
2023-02-08T09:00:22.558Z,103335.85
2023-02-08T09:02:51.136Z,103337.83
2023-02-08T09:05:20.128Z,103338.04
2023-02-08T09:07:48.856Z,103337.73
2023-02-08T09:10:17.683Z,103341.23
2023-02-08T09:12:46.282Z,103339.70
2023-02-08T09:15:15.026Z,103338.88
2023-02-08T09:17:43.967Z,103340.27
2023-02-08T09:20:12.821Z,103339.58
2023-02-08T09:22:41.416Z,103338.30
2023-02-08T09:25:09.936Z,103339.34
2023-02-08T09:27:38.469Z,103340.64
2023-02-08T09:30:08.354Z,103343.13
2023-02-08T09:32:39.216Z,103345.76
2023-02-08T09:35:08.115Z,103345.50
2023-02-08T09:37:36.615Z,103347.80
2023-02-08T09:40:05.912Z,103346.73
2023-02-08T09:42:39.988Z,103347.74
2023-02-08T09:45:24.455Z,103346.45
2023-02-08T09:47:55.115Z,103345.36
2023-02-08T09:50:25.200Z,103346.92
2023-02-08T09:52:55.189Z,103345.69
2023-02-08T09:55:25.720Z,103344.23
2023-02-08T09:57:54.666Z,103344.39
2023-02-08T10:00:25.215Z,103337.64
2023-02-08T10:02:54.298Z,103335.80
2023-02-08T10:05:23.368Z,103334.67
2023-02-08T10:07:52.277Z,103333.80
2023-02-08T10:10:22.048Z,103333.48
2023-02-08T10:12:52.053Z,103327.17
2023-02-08T10:15:24.126Z,103328.80
2023-02-08T10:17:58.046Z,103332.18
2023-02-08T10:20:31.010Z,103333.14
2023-02-08T10:23:02.273Z,103327.80
2023-02-08T10:25:45.932Z,103332.70
2023-02-08T10:28:24.166Z,103339.72
2023-02-08T10:30:53.626Z,103342.61
2023-02-08T10:33:25.062Z,103341.23
2023-02-08T10:35:53.918Z,103345.30
2023-02-08T10:38:31.846Z,103346.82
2023-02-08T10:41:05.856Z,103344.57
2023-02-08T10:43:35.919Z,103344.90
2023-02-08T10:46:07.319Z,103349.02
2023-02-08T10:48:41.072Z,103353.38
2023-02-08T10:51:10.665Z,103352.66
2023-02-08T10:53:39.129Z,103352.80
2023-02-08T10:56:09.695Z,103351.98
2023-02-08T10:58:38.605Z,103347.57
2023-02-08T11:01:08.968Z,103344.77
2023-02-08T11:03:39.403Z,103340.63
2023-02-08T11:06:27.011Z,103336.86
2023-02-08T11:08:56.249Z,103335.81
2023-02-08T11:11:26.375Z,103335.98
2023-02-08T11:13:55.118Z,103335.33
2023-02-08T11:16:24.006Z,103334.39
2023-02-08T11:18:53.035Z,103334.90
2023-02-08T11:21:22.634Z,103337.48
2023-02-08T11:23:51.865Z,103336.63
2023-02-08T11:26:21.459Z,103334.87
2023-02-08T11:29:00.574Z,103333.62
2023-02-08T11:31:29.333Z,103332.16
2023-02-08T11:33:59.120Z,103329.15
2023-02-08T11:36:29.053Z,103325.79
2023-02-08T11:38:58.752Z,103326.60
2023-02-08T11:41:27.334Z,103327.64
2023-02-08T11:43:57.388Z,103328.48
2023-02-08T11:46:26.801Z,103329.45
2023-02-08T11:48:55.650Z,103330.56
2023-02-08T11:51:25.955Z,103327.77
2023-02-08T11:53:54.584Z,103325.78
2023-02-08T11:56:23.687Z,103322.15
2023-02-08T11:59:02.664Z,103326.86
2023-02-08T12:01:32.067Z,103325.05
2023-02-08T12:04:01.780Z,103318.05
2023-02-08T12:06:47.337Z,103315.58
2023-02-08T12:09:19.929Z,103311.34
2023-02-08T12:11:48.982Z,103314.81
2023-02-08T12:14:26.980Z,103315.62
2023-02-08T12:17:08.053Z,103317.98
2023-02-08T12:19:40.906Z,103316.29
2023-02-08T12:22:11.037Z,103317.08
2023-02-08T12:24:42.726Z,103318.03
2023-02-08T12:27:17.284Z,103320.21
2023-02-08T12:29:48.480Z,103320.34
2023-02-08T12:32:27.413Z,103324.81
2023-02-08T12:35:01.608Z,103321.95
2023-02-08T12:37:51.896Z,103322.76
2023-02-08T12:40:42.284Z,103320.84
2023-02-08T12:43:14.275Z,103329.25
2023-02-08T12:45:50.959Z,103322.61
2023-02-08T12:48:22.688Z,103326.73
2023-02-08T12:50:52.976Z,103335.89
2023-02-08T12:53:25.085Z,103332.98
2023-02-08T12:55:53.886Z,103333.30
2023-02-08T12:58:25.778Z,103333.33
2023-02-08T13:00:54.712Z,103333.84
2023-02-08T13:03:27.454Z,103335.54
2023-02-08T13:06:02.094Z,103333.98
2023-02-08T13:08:32.958Z,103335.34
2023-02-08T13:11:17.727Z,103336.91
2023-02-08T13:13:50.323Z,103336.33
2023-02-08T13:16:20.280Z,103330.06
2023-02-08T13:18:50.808Z,103329.70
2023-02-08T13:21:20.006Z,103331.05
2023-02-08T13:23:52.904Z,103329.83
2023-02-08T13:26:25.730Z,103326.98
2023-02-08T13:28:55.005Z,103328.42
2023-02-08T13:31:24.488Z,103335.61
2023-02-08T13:34:01.182Z,103337.02
2023-02-08T13:36:31.406Z,103337.15
2023-02-08T13:39:00.509Z,103340.52
2023-02-08T13:41:29.624Z,103340.98
2023-02-08T13:43:59.130Z,103339.25
2023-02-08T13:46:35.437Z,103337.17
2023-02-08T13:49:04.161Z,103333.14
2023-02-08T13:51:52.010Z,103329.64
2023-02-08T13:54:20.912Z,103327.54
2023-02-08T13:56:50.637Z,103330.84
2023-02-08T13:59:27.286Z,103331.52
2023-02-08T14:02:28.643Z,103326.05
2023-02-08T14:05:14.123Z,103323.41
2023-02-08T14:07:43.571Z,103320.66
2023-02-08T14:10:23.223Z,103323.70
2023-02-08T14:12:54.502Z,103322.33
2023-02-08T14:15:28.368Z,103321.06
2023-02-08T14:17:58.920Z,103328.51
2023-02-08T14:20:29.961Z,103327.77
2023-02-08T14:23:00.298Z,103333.11
2023-02-08T14:25:29.954Z,103328.11
2023-02-08T14:27:58.860Z,103331.48
2023-02-08T14:30:27.868Z,103332.30
2023-02-08T14:33:11.657Z,103335.73
2023-02-08T14:35:41.520Z,103336.27
2023-02-08T14:38:29.169Z,103337.87
2023-02-08T14:40:58.024Z,103341.73
2023-02-08T14:43:31.259Z,103342.76
2023-02-08T14:46:13.947Z,103341.31
2023-02-08T14:48:44.446Z,103347.24
2023-02-08T14:51:18.714Z,103344.11
2023-02-08T14:53:48.566Z,103346.95
2023-02-08T14:56:18.503Z,103353.53
2023-02-08T14:58:49.098Z,103352.23
2023-02-08T15:01:19.640Z,103351.16
2023-02-08T15:03:49.883Z,103350.86
2023-02-08T15:06:50.966Z,103358.06
2023-02-08T15:09:20.257Z,103356.48
2023-02-08T15:11:49.881Z,103358.48
2023-02-08T15:14:19.257Z,103359.29
2023-02-08T15:16:48.102Z,103363.95
2023-02-08T15:19:21.301Z,103368.38
2023-02-08T15:21:50.184Z,103364.52
2023-02-08T15:24:19.222Z,103367.78
2023-02-08T15:26:48.768Z,103369.21
2023-02-08T15:29:22.339Z,103375.63
2023-02-08T15:31:53.587Z,103378.50
2023-02-08T15:34:22.463Z,103378.02
2023-02-08T15:36:51.824Z,103379.88
2023-02-08T15:39:30.184Z,103382.66
2023-02-08T15:41:59.001Z,103387.65
2023-02-08T15:44:29.700Z,103387.48
2023-02-08T15:46:59.353Z,103391.52
2023-02-08T15:49:30.547Z,103397.80
2023-02-08T15:51:59.442Z,103397.23
2023-02-08T15:54:28.267Z,103402.02
2023-02-08T15:56:57.735Z,103403.98
2023-02-08T15:59:27.092Z,103405.80
2023-02-08T16:01:56.047Z,103406.36
2023-02-08T16:04:25.316Z,103407.92
2023-02-08T16:06:55.414Z,103409.59
2023-02-08T16:09:27.839Z,103408.00
2023-02-08T16:11:57.285Z,103411.78
2023-02-08T16:14:29.345Z,103413.70
2023-02-08T16:16:59.338Z,103412.98
2023-02-08T16:19:28.947Z,103415.83
2023-02-08T16:21:58.094Z,103415.25
2023-02-08T16:24:26.610Z,103415.29
2023-02-08T16:27:00.998Z,103413.20
2023-02-08T16:29:30.637Z,103412.52
2023-02-08T16:32:01.337Z,103414.44
2023-02-08T16:34:30.655Z,103415.05
2023-02-08T16:36:59.540Z,103415.15
2023-02-08T16:39:46.583Z,103413.27
2023-02-08T16:42:20.502Z,103411.90
2023-02-08T16:45:12.501Z,103410.44
2023-02-08T16:47:41.933Z,103406.16
2023-02-08T16:50:11.166Z,103407.36
2023-02-08T16:52:40.552Z,103404.65
2023-02-08T16:55:14.741Z,103408.15
2023-02-08T16:57:44.605Z,103406.63
2023-02-08T17:00:18.891Z,103410.29
2023-02-08T17:02:49.020Z,103407.53
2023-02-08T17:05:18.161Z,103408.79
2023-02-08T17:07:47.040Z,103409.70
2023-02-08T17:10:18.716Z,103411.85
2023-02-08T17:12:47.340Z,103416.27
2023-02-08T17:15:16.069Z,103417.90
2023-02-08T17:17:44.843Z,103420.05
2023-02-08T17:20:17.805Z,103425.23
2023-02-08T17:22:46.458Z,103429.40
2023-02-08T17:25:18.955Z,103429.45
2023-02-08T17:27:50.409Z,103435.23
2023-02-08T17:30:22.938Z,103437.37
2023-02-08T17:32:51.970Z,103443.23
2023-02-08T17:35:20.976Z,103448.14
2023-02-08T17:37:52.565Z,103453.62
2023-02-08T17:40:26.499Z,103456.49
2023-02-08T17:42:55.290Z,103460.27
2023-02-08T17:45:24.084Z,103456.05
2023-02-08T17:47:52.938Z,103456.16
2023-02-08T17:50:21.909Z,103457.34
2023-02-08T17:52:50.911Z,103458.77
2023-02-08T17:55:19.793Z,103459.05
2023-02-08T17:57:48.538Z,103462.05
2023-02-08T18:00:18.338Z,103460.86
2023-02-08T18:02:47.906Z,103464.04
2023-02-08T18:05:17.169Z,103466.04
2023-02-08T18:07:45.835Z,103467.95
2023-02-08T18:10:14.713Z,103468.38
2023-02-08T18:12:43.340Z,103471.21
2023-02-08T18:15:13.495Z,103472.59
2023-02-08T18:17:44.267Z,103476.05
2023-02-08T18:20:14.247Z,103476.80
2023-02-08T18:22:43.328Z,103476.81
2023-02-08T18:25:12.757Z,103480.20
2023-02-08T18:27:41.284Z,103484.06
2023-02-08T18:30:11.093Z,103484.00
2023-02-08T18:32:39.767Z,103483.61
2023-02-08T18:35:08.755Z,103491.27
2023-02-08T18:37:37.593Z,103487.02
2023-02-08T18:40:06.789Z,103489.76
2023-02-08T18:42:36.275Z,103491.60
2023-02-08T18:45:05.449Z,103490.11
2023-02-08T18:47:35.176Z,103483.41
2023-02-08T18:50:21.998Z,103489.20
2023-02-08T18:52:50.524Z,103488.20
2023-02-08T18:55:19.356Z,103486.34
2023-02-08T18:57:48.139Z,103493.27
2023-02-08T19:00:17.328Z,103494.95
2023-02-08T19:02:46.377Z,103495.70
2023-02-08T19:05:14.980Z,103499.56
2023-02-08T19:07:43.620Z,103506.95
2023-02-08T19:10:12.321Z,103501.83
2023-02-08T19:12:41.537Z,103502.35
2023-02-08T19:15:10.447Z,103506.65
2023-02-08T19:17:38.882Z,103512.23
2023-02-08T19:20:08.969Z,103511.20
2023-02-08T19:22:37.742Z,103511.02
2023-02-08T19:25:07.907Z,103509.39
2023-02-08T19:27:36.783Z,103511.11
2023-02-08T19:30:06.209Z,103506.61
2023-02-08T19:32:34.814Z,103507.54
2023-02-08T19:35:03.563Z,103509.70
2023-02-08T19:37:32.379Z,103508.36
2023-02-08T19:40:01.121Z,103502.96
2023-02-08T19:42:29.621Z,103500.95
2023-02-08T19:44:58.022Z,103501.66
2023-02-08T19:47:43.389Z,103498.45
2023-02-08T19:50:15.418Z,103501.48
2023-02-08T19:52:44.232Z,103498.69
2023-02-08T19:55:12.743Z,103500.40
2023-02-08T19:57:41.250Z,103494.59
2023-02-08T20:00:22.926Z,103498.21
2023-02-08T20:02:52.510Z,103499.21
2023-02-08T20:05:21.114Z,103501.88
2023-02-08T20:07:49.658Z,103498.72
2023-02-08T20:10:18.266Z,103499.33
2023-02-08T20:12:46.805Z,103502.50
2023-02-08T20:15:15.653Z,103499.08
2023-02-08T20:17:45.176Z,103499.80
2023-02-08T20:20:13.749Z,103494.49
2023-02-08T20:22:42.303Z,103501.14
2023-02-08T20:25:10.924Z,103505.53
2023-02-08T20:27:39.740Z,103508.73
2023-02-08T20:30:10.373Z,103508.50
2023-02-08T20:32:39.674Z,103512.81
2023-02-08T20:35:08.502Z,103513.17
2023-02-08T20:37:37.215Z,103511.23
2023-02-08T20:40:06.475Z,103508.28
2023-02-08T20:42:35.200Z,103513.45
2023-02-08T20:45:04.335Z,103516.95
2023-02-08T20:47:44.912Z,103511.91
2023-02-08T20:50:19.589Z,103512.79
2023-02-08T20:52:48.928Z,103513.08
2023-02-08T20:55:17.870Z,103511.45
2023-02-08T20:57:46.315Z,103514.61
2023-02-08T21:00:15.590Z,103509.39
2023-02-08T21:02:44.400Z,103512.17
2023-02-08T21:05:13.322Z,103510.67
2023-02-08T21:07:42.120Z,103516.16
2023-02-08T21:10:10.581Z,103517.85
2023-02-08T21:12:39.114Z,103518.25
2023-02-08T21:15:09.390Z,103516.09
2023-02-08T21:17:40.636Z,103515.86
2023-02-08T21:20:12.074Z,103513.35
2023-02-08T21:22:40.665Z,103522.55
2023-02-08T21:25:09.668Z,103521.44
2023-02-08T21:27:38.489Z,103521.98
2023-02-08T21:30:08.168Z,103515.59
2023-02-08T21:32:37.292Z,103516.27
2023-02-08T21:35:06.533Z,103516.02
2023-02-08T21:37:35.092Z,103515.77
2023-02-08T21:40:03.956Z,103521.04
2023-02-08T21:42:33.631Z,103525.59
2023-02-08T21:45:02.345Z,103525.39
2023-02-08T21:47:30.847Z,103530.52
2023-02-08T21:50:17.883Z,103528.95
2023-02-08T21:53:04.704Z,103531.16
2023-02-08T21:55:33.490Z,103528.70
2023-02-08T21:58:02.124Z,103526.31
2023-02-08T22:00:30.696Z,103529.80
2023-02-08T22:02:59.288Z,103532.73
2023-02-08T22:05:46.352Z,103527.05
2023-02-08T22:08:15.164Z,103526.52
2023-02-08T22:10:53.395Z,103528.98
2023-02-08T22:13:27.271Z,103536.73
2023-02-08T22:15:55.854Z,103531.16
2023-02-08T22:18:24.660Z,103538.05
2023-02-08T22:20:53.681Z,103538.56
2023-02-08T22:23:22.461Z,103538.80
2023-02-08T22:25:54.400Z,103540.77
2023-02-08T22:28:23.049Z,103542.10
2023-02-08T22:30:51.835Z,103543.89
2023-02-08T22:33:20.843Z,103539.14
2023-02-08T22:35:49.495Z,103535.40
2023-02-08T22:38:17.939Z,103540.55
2023-02-08T22:40:46.631Z,103541.70
2023-02-08T22:43:15.423Z,103547.71
2023-02-08T22:45:44.409Z,103545.08
2023-02-08T22:48:13.089Z,103550.33
2023-02-08T22:50:41.792Z,103551.05
2023-02-08T22:53:10.288Z,103552.44
2023-02-08T22:55:38.978Z,103552.17
2023-02-08T22:58:07.707Z,103554.96
2023-02-08T23:00:36.393Z,103557.11
2023-02-08T23:03:05.035Z,103542.92
2023-02-08T23:05:34.336Z,103543.05
2023-02-08T23:08:03.030Z,103536.66
2023-02-08T23:10:31.742Z,103537.77
2023-02-08T23:13:00.439Z,103540.27
2023-02-08T23:15:29.140Z,103541.33
2023-02-08T23:17:58.068Z,103540.66
2023-02-08T23:20:26.798Z,103539.15
2023-02-08T23:22:55.572Z,103542.57
2023-02-08T23:25:24.291Z,103534.73
2023-02-08T23:27:52.869Z,103543.69
2023-02-08T23:30:21.515Z,103541.75
2023-02-08T23:32:50.207Z,103540.31
2023-02-08T23:35:19.028Z,103547.48
2023-02-08T23:37:47.615Z,103546.66
2023-02-08T23:40:16.483Z,103544.76
2023-02-08T23:42:45.004Z,103544.64
2023-02-08T23:45:13.705Z,103546.05
2023-02-08T23:47:42.423Z,103548.27
2023-02-08T23:50:11.288Z,103551.10
2023-02-08T23:52:39.870Z,103548.10
2023-02-08T23:55:08.848Z,103547.73
2023-02-08T23:57:37.812Z,103547.60
